sensor_id;sensor_type;location;lat;lon;timestamp;temperature;humidity
25640;DHT22;13497;48.322;16.204;2023-09-19T00:02:02;19.80;99.90
25640;DHT22;13497;48.322;16.204;2023-09-19T00:04:34;19.80;99.90
25640;DHT22;13497;48.322;16.204;2023-09-19T00:07:00;19.80;99.90
25640;DHT22;13497;48.322;16.204;2023-09-19T00:09:28;19.80;99.90
25640;DHT22;13497;48.322;16.204;2023-09-19T00:11:53;19.60;99.90
25640;DHT22;13497;48.322;16.204;2023-09-19T00:14:19;19.60;99.90
25640;DHT22;13497;48.322;16.204;2023-09-19T00:16:45;19.60;99.90
25640;DHT22;13497;48.322;16.204;2023-09-19T00:19:12;19.50;99.90
25640;DHT22;13497;48.322;16.204;2023-09-19T00:21:38;19.50;99.90
25640;DHT22;13497;48.322;16.204;2023-09-19T00:24:06;19.50;99.90
25640;DHT22;13497;48.322;16.204;2023-09-19T00:26:32;19.50;99.90
25640;DHT22;13497;48.322;16.204;2023-09-19T00:28:59;19.40;99.90
25640;DHT22;13497;48.322;16.204;2023-09-19T00:31:31;19.40;99.90
25640;DHT22;13497;48.322;16.204;2023-09-19T00:33:56;19.40;99.90
25640;DHT22;13497;48.322;16.204;2023-09-19T00:36:27;19.20;99.90
25640;DHT22;13497;48.322;16.204;2023-09-19T00:38:54;19.10;99.90
25640;DHT22;13497;48.322;16.204;2023-09-19T00:41:20;18.90;99.90
25640;DHT22;13497;48.322;16.204;2023-09-19T00:43:46;18.80;99.90
25640;DHT22;13497;48.322;16.204;2023-09-19T00:46:16;18.70;99.90
25640;DHT22;13497;48.322;16.204;2023-09-19T00:48:42;18.60;99.90
25640;DHT22;13497;48.322;16.204;2023-09-19T00:51:12;18.50;99.90
25640;DHT22;13497;48.322;16.204;2023-09-19T00:53:39;18.50;99.90
25640;DHT22;13497;48.322;16.204;2023-09-19T00:56:12;18.50;99.90
25640;DHT22;13497;48.322;16.204;2023-09-19T00:58:38;18.40;99.90
25640;DHT22;13497;48.322;16.204;2023-09-19T01:01:04;18.40;99.90
25640;DHT22;13497;48.322;16.204;2023-09-19T01:03:33;18.40;99.90
25640;DHT22;13497;48.322;16.204;2023-09-19T01:06:02;18.30;99.90
25640;DHT22;13497;48.322;16.204;2023-09-19T01:08:28;18.30;99.90
25640;DHT22;13497;48.322;16.204;2023-09-19T01:11:12;18.20;99.90
25640;DHT22;13497;48.322;16.204;2023-09-19T01:13:58;18.10;99.90
25640;DHT22;13497;48.322;16.204;2023-09-19T01:16:50;18.00;99.90
25640;DHT22;13497;48.322;16.204;2023-09-19T01:22:28;17.80;99.90
25640;DHT22;13497;48.322;16.204;2023-09-19T01:25:20;17.70;99.90
25640;DHT22;13497;48.322;16.204;2023-09-19T01:28:15;17.60;99.90
25640;DHT22;13497;48.322;16.204;2023-09-19T01:30:46;17.50;99.90
25640;DHT22;13497;48.322;16.204;2023-09-19T01:33:12;17.40;99.90
25640;DHT22;13497;48.322;16.204;2023-09-19T01:35:40;17.40;99.90
25640;DHT22;13497;48.322;16.204;2023-09-19T01:38:06;17.30;99.90
25640;DHT22;13497;48.322;16.204;2023-09-19T01:40:43;17.30;99.90
25640;DHT22;13497;48.322;16.204;2023-09-19T01:45:57;17.20;99.90
25640;DHT22;13497;48.322;16.204;2023-09-19T01:48:49;17.30;99.90
25640;DHT22;13497;48.322;16.204;2023-09-19T01:51:27;17.20;99.90
25640;DHT22;13497;48.322;16.204;2023-09-19T01:54:09;17.20;99.90
25640;DHT22;13497;48.322;16.204;2023-09-19T01:56:48;17.10;99.90
25640;DHT22;13497;48.322;16.204;2023-09-19T01:59:21;17.20;99.90
25640;DHT22;13497;48.322;16.204;2023-09-19T02:01:49;17.20;99.90
25640;DHT22;13497;48.322;16.204;2023-09-19T02:04:17;17.30;99.90
25640;DHT22;13497;48.322;16.204;2023-09-19T02:06:43;17.30;99.90
25640;DHT22;13497;48.322;16.204;2023-09-19T02:09:08;17.40;99.90
25640;DHT22;13497;48.322;16.204;2023-09-19T02:11:35;17.40;99.90
25640;DHT22;13497;48.322;16.204;2023-09-19T02:14:02;17.50;99.90
25640;DHT22;13497;48.322;16.204;2023-09-19T02:16:29;17.50;99.90
25640;DHT22;13497;48.322;16.204;2023-09-19T02:18:55;17.60;99.90
25640;DHT22;13497;48.322;16.204;2023-09-19T02:21:20;17.60;99.90
25640;DHT22;13497;48.322;16.204;2023-09-19T02:23:47;17.70;99.90
25640;DHT22;13497;48.322;16.204;2023-09-19T02:26:13;17.70;99.90
25640;DHT22;13497;48.322;16.204;2023-09-19T02:28:39;17.80;99.90
25640;DHT22;13497;48.322;16.204;2023-09-19T02:31:05;17.80;99.90
25640;DHT22;13497;48.322;16.204;2023-09-19T02:33:31;17.80;99.90
25640;DHT22;13497;48.322;16.204;2023-09-19T02:36:01;17.80;99.90
25640;DHT22;13497;48.322;16.204;2023-09-19T02:38:29;17.80;99.90
25640;DHT22;13497;48.322;16.204;2023-09-19T02:40:55;17.80;99.90
25640;DHT22;13497;48.322;16.204;2023-09-19T02:43:22;17.80;99.90
25640;DHT22;13497;48.322;16.204;2023-09-19T02:45:48;17.90;99.90
25640;DHT22;13497;48.322;16.204;2023-09-19T02:48:18;17.80;99.90
25640;DHT22;13497;48.322;16.204;2023-09-19T02:50:44;17.70;99.90
25640;DHT22;13497;48.322;16.204;2023-09-19T02:53:10;17.60;99.90
25640;DHT22;13497;48.322;16.204;2023-09-19T02:55:38;17.60;99.90
25640;DHT22;13497;48.322;16.204;2023-09-19T02:58:06;17.60;99.90
25640;DHT22;13497;48.322;16.204;2023-09-19T03:00:33;17.60;99.90
25640;DHT22;13497;48.322;16.204;2023-09-19T03:03:00;17.60;99.90
25640;DHT22;13497;48.322;16.204;2023-09-19T03:05:27;17.60;99.90
25640;DHT22;13497;48.322;16.204;2023-09-19T03:07:56;17.60;99.90
25640;DHT22;13497;48.322;16.204;2023-09-19T03:10:22;17.50;99.90
25640;DHT22;13497;48.322;16.204;2023-09-19T03:12:50;17.50;99.90
25640;DHT22;13497;48.322;16.204;2023-09-19T03:15:16;17.50;99.90
25640;DHT22;13497;48.322;16.204;2023-09-19T03:17:44;17.50;99.90
25640;DHT22;13497;48.322;16.204;2023-09-19T03:20:10;17.60;99.90
25640;DHT22;13497;48.322;16.204;2023-09-19T03:22:38;17.60;99.90
25640;DHT22;13497;48.322;16.204;2023-09-19T03:25:06;17.50;99.90
25640;DHT22;13497;48.322;16.204;2023-09-19T03:27:43;17.50;99.90
25640;DHT22;13497;48.322;16.204;2023-09-19T03:30:08;17.50;99.90
25640;DHT22;13497;48.322;16.204;2023-09-19T03:32:35;17.50;99.90
25640;DHT22;13497;48.322;16.204;2023-09-19T03:35:02;17.60;99.90
25640;DHT22;13497;48.322;16.204;2023-09-19T03:37:30;17.50;99.90
25640;DHT22;13497;48.322;16.204;2023-09-19T03:39:56;17.50;99.90
25640;DHT22;13497;48.322;16.204;2023-09-19T03:42:22;17.50;99.90
25640;DHT22;13497;48.322;16.204;2023-09-19T03:44:51;17.50;99.90
25640;DHT22;13497;48.322;16.204;2023-09-19T03:47:17;17.50;99.90
25640;DHT22;13497;48.322;16.204;2023-09-19T03:49:44;17.50;99.90
25640;DHT22;13497;48.322;16.204;2023-09-19T03:52:10;17.50;99.90
25640;DHT22;13497;48.322;16.204;2023-09-19T03:54:35;17.50;99.90
25640;DHT22;13497;48.322;16.204;2023-09-19T03:57:01;17.50;99.90
25640;DHT22;13497;48.322;16.204;2023-09-19T03:59:29;17.50;99.90
25640;DHT22;13497;48.322;16.204;2023-09-19T04:01:55;17.50;99.90
25640;DHT22;13497;48.322;16.204;2023-09-19T04:04:22;17.50;99.90
25640;DHT22;13497;48.322;16.204;2023-09-19T04:06:50;17.50;99.90
25640;DHT22;13497;48.322;16.204;2023-09-19T04:09:16;17.50;99.90
25640;DHT22;13497;48.322;16.204;2023-09-19T04:11:41;17.50;99.90
25640;DHT22;13497;48.322;16.204;2023-09-19T04:14:07;17.60;99.90
25640;DHT22;13497;48.322;16.204;2023-09-19T04:16:33;17.50;99.90
25640;DHT22;13497;48.322;16.204;2023-09-19T04:18:58;17.50;99.90
25640;DHT22;13497;48.322;16.204;2023-09-19T04:21:24;17.50;99.90
25640;DHT22;13497;48.322;16.204;2023-09-19T04:23:50;17.50;99.90
25640;DHT22;13497;48.322;16.204;2023-09-19T04:26:16;17.50;99.90
25640;DHT22;13497;48.322;16.204;2023-09-19T04:28:42;17.50;99.90
25640;DHT22;13497;48.322;16.204;2023-09-19T04:31:09;17.50;99.90
25640;DHT22;13497;48.322;16.204;2023-09-19T04:33:37;17.50;99.90
25640;DHT22;13497;48.322;16.204;2023-09-19T04:36:03;17.50;99.90
25640;DHT22;13497;48.322;16.204;2023-09-19T04:38:33;17.40;99.90
25640;DHT22;13497;48.322;16.204;2023-09-19T04:40:58;17.40;99.90
25640;DHT22;13497;48.322;16.204;2023-09-19T04:43:25;17.40;99.90
25640;DHT22;13497;48.322;16.204;2023-09-19T04:45:50;17.40;99.90
25640;DHT22;13497;48.322;16.204;2023-09-19T04:48:19;17.40;99.90
25640;DHT22;13497;48.322;16.204;2023-09-19T04:50:45;17.40;99.90
25640;DHT22;13497;48.322;16.204;2023-09-19T04:53:10;17.40;99.90
25640;DHT22;13497;48.322;16.204;2023-09-19T04:55:36;17.40;99.90
25640;DHT22;13497;48.322;16.204;2023-09-19T04:58:02;17.30;99.90
25640;DHT22;13497;48.322;16.204;2023-09-19T05:00:28;17.30;99.90
25640;DHT22;13497;48.322;16.204;2023-09-19T05:02:57;17.40;99.90
25640;DHT22;13497;48.322;16.204;2023-09-19T05:05:23;17.40;99.90
25640;DHT22;13497;48.322;16.204;2023-09-19T05:07:49;17.40;99.90
25640;DHT22;13497;48.322;16.204;2023-09-19T05:10:16;17.40;99.90
25640;DHT22;13497;48.322;16.204;2023-09-19T05:12:44;17.40;99.90
25640;DHT22;13497;48.322;16.204;2023-09-19T05:15:12;17.40;99.90
25640;DHT22;13497;48.322;16.204;2023-09-19T05:17:38;17.30;99.90
25640;DHT22;13497;48.322;16.204;2023-09-19T05:20:05;17.40;99.90
25640;DHT22;13497;48.322;16.204;2023-09-19T05:23:01;17.30;99.90
25640;DHT22;13497;48.322;16.204;2023-09-19T05:25:31;17.30;99.90
25640;DHT22;13497;48.322;16.204;2023-09-19T05:27:58;17.30;99.90
25640;DHT22;13497;48.322;16.204;2023-09-19T05:30:25;17.30;99.90
25640;DHT22;13497;48.322;16.204;2023-09-19T05:32:53;17.40;99.90
25640;DHT22;13497;48.322;16.204;2023-09-19T05:35:19;17.30;99.90
25640;DHT22;13497;48.322;16.204;2023-09-19T05:37:47;17.30;99.90
25640;DHT22;13497;48.322;16.204;2023-09-19T05:40:14;17.20;99.90
25640;DHT22;13497;48.322;16.204;2023-09-19T05:42:41;17.20;99.90
25640;DHT22;13497;48.322;16.204;2023-09-19T05:45:10;17.20;99.90
25640;DHT22;13497;48.322;16.204;2023-09-19T05:47:39;17.20;99.90
25640;DHT22;13497;48.322;16.204;2023-09-19T05:50:11;17.20;99.90
25640;DHT22;13497;48.322;16.204;2023-09-19T05:52:37;17.30;99.90
25640;DHT22;13497;48.322;16.204;2023-09-19T05:55:04;17.30;99.90
25640;DHT22;13497;48.322;16.204;2023-09-19T05:57:32;17.40;99.90
25640;DHT22;13497;48.322;16.204;2023-09-19T05:59:58;17.50;99.90
25640;DHT22;13497;48.322;16.204;2023-09-19T06:02:23;17.60;99.90
25640;DHT22;13497;48.322;16.204;2023-09-19T06:04:52;17.70;99.90
25640;DHT22;13497;48.322;16.204;2023-09-19T06:07:18;17.80;99.90
25640;DHT22;13497;48.322;16.204;2023-09-19T06:09:44;17.90;99.90
25640;DHT22;13497;48.322;16.204;2023-09-19T06:12:09;18.00;99.90
25640;DHT22;13497;48.322;16.204;2023-09-19T06:14:35;18.10;99.90
25640;DHT22;13497;48.322;16.204;2023-09-19T06:17:00;18.20;99.90
25640;DHT22;13497;48.322;16.204;2023-09-19T06:19:26;18.20;99.90
25640;DHT22;13497;48.322;16.204;2023-09-19T06:21:52;18.20;99.90
25640;DHT22;13497;48.322;16.204;2023-09-19T06:24:19;18.30;99.90
25640;DHT22;13497;48.322;16.204;2023-09-19T06:26:46;18.30;99.90
25640;DHT22;13497;48.322;16.204;2023-09-19T06:29:13;18.30;99.90
25640;DHT22;13497;48.322;16.204;2023-09-19T06:31:39;18.40;99.90
25640;DHT22;13497;48.322;16.204;2023-09-19T06:34:05;18.30;99.90
25640;DHT22;13497;48.322;16.204;2023-09-19T06:36:31;18.30;99.90
25640;DHT22;13497;48.322;16.204;2023-09-19T06:38:56;18.40;99.90
25640;DHT22;13497;48.322;16.204;2023-09-19T06:41:22;18.50;99.90
25640;DHT22;13497;48.322;16.204;2023-09-19T06:43:50;18.50;99.90
25640;DHT22;13497;48.322;16.204;2023-09-19T06:46:18;18.50;99.90
25640;DHT22;13497;48.322;16.204;2023-09-19T06:48:44;18.50;99.90
25640;DHT22;13497;48.322;16.204;2023-09-19T06:51:13;18.40;99.90
25640;DHT22;13497;48.322;16.204;2023-09-19T06:53:41;18.40;99.90
25640;DHT22;13497;48.322;16.204;2023-09-19T06:56:07;18.50;99.90
25640;DHT22;13497;48.322;16.204;2023-09-19T06:58:33;18.60;99.90
25640;DHT22;13497;48.322;16.204;2023-09-19T07:01:00;18.70;99.90
25640;DHT22;13497;48.322;16.204;2023-09-19T07:03:26;18.70;99.90
25640;DHT22;13497;48.322;16.204;2023-09-19T07:05:54;18.70;99.90
25640;DHT22;13497;48.322;16.204;2023-09-19T07:08:21;18.70;99.90
25640;DHT22;13497;48.322;16.204;2023-09-19T07:10:47;18.70;99.90
25640;DHT22;13497;48.322;16.204;2023-09-19T07:13:18;18.80;99.90
25640;DHT22;13497;48.322;16.204;2023-09-19T07:15:44;18.80;99.90
25640;DHT22;13497;48.322;16.204;2023-09-19T07:18:17;18.80;99.90
25640;DHT22;13497;48.322;16.204;2023-09-19T07:20:44;18.80;99.90
25640;DHT22;13497;48.322;16.204;2023-09-19T07:23:20;18.80;99.90
25640;DHT22;13497;48.322;16.204;2023-09-19T07:25:48;18.80;99.90
25640;DHT22;13497;48.322;16.204;2023-09-19T07:28:15;18.70;99.90
25640;DHT22;13497;48.322;16.204;2023-09-19T07:30:40;18.60;99.90
25640;DHT22;13497;48.322;16.204;2023-09-19T07:33:09;18.70;99.90
25640;DHT22;13497;48.322;16.204;2023-09-19T07:35:38;18.70;99.90
25640;DHT22;13497;48.322;16.204;2023-09-19T07:38:06;18.70;99.90
25640;DHT22;13497;48.322;16.204;2023-09-19T07:40:31;18.70;99.90
25640;DHT22;13497;48.322;16.204;2023-09-19T07:42:57;18.70;99.90
25640;DHT22;13497;48.322;16.204;2023-09-19T07:45:30;18.80;99.90
25640;DHT22;13497;48.322;16.204;2023-09-19T07:47:56;18.90;99.90
25640;DHT22;13497;48.322;16.204;2023-09-19T07:50:21;18.90;99.90
25640;DHT22;13497;48.322;16.204;2023-09-19T07:52:49;18.90;99.90
25640;DHT22;13497;48.322;16.204;2023-09-19T07:55:18;18.90;99.90
25640;DHT22;13497;48.322;16.204;2023-09-19T07:57:45;19.10;99.90
25640;DHT22;13497;48.322;16.204;2023-09-19T08:00:12;19.10;99.90
25640;DHT22;13497;48.322;16.204;2023-09-19T08:02:39;19.20;99.90
25640;DHT22;13497;48.322;16.204;2023-09-19T08:05:06;19.20;99.90
25640;DHT22;13497;48.322;16.204;2023-09-19T08:07:32;19.30;99.90
25640;DHT22;13497;48.322;16.204;2023-09-19T08:09:57;19.50;99.90
25640;DHT22;13497;48.322;16.204;2023-09-19T08:12:24;19.60;99.90
25640;DHT22;13497;48.322;16.204;2023-09-19T08:14:50;19.80;99.90
25640;DHT22;13497;48.322;16.204;2023-09-19T08:17:16;20.00;99.90
25640;DHT22;13497;48.322;16.204;2023-09-19T08:19:42;20.20;99.90
25640;DHT22;13497;48.322;16.204;2023-09-19T08:22:10;20.40;99.90
25640;DHT22;13497;48.322;16.204;2023-09-19T08:24:36;20.50;99.90
25640;DHT22;13497;48.322;16.204;2023-09-19T08:27:04;20.50;99.90
25640;DHT22;13497;48.322;16.204;2023-09-19T08:29:30;20.40;99.90
25640;DHT22;13497;48.322;16.204;2023-09-19T08:31:57;20.30;99.90
25640;DHT22;13497;48.322;16.204;2023-09-19T08:34:24;20.30;99.90
25640;DHT22;13497;48.322;16.204;2023-09-19T08:36:55;20.30;99.90
25640;DHT22;13497;48.322;16.204;2023-09-19T08:39:24;20.20;99.90
25640;DHT22;13497;48.322;16.204;2023-09-19T08:41:57;20.10;99.90
25640;DHT22;13497;48.322;16.204;2023-09-19T08:44:24;20.00;99.90
25640;DHT22;13497;48.322;16.204;2023-09-19T08:46:55;19.90;99.90
25640;DHT22;13497;48.322;16.204;2023-09-19T08:49:28;19.80;99.90
25640;DHT22;13497;48.322;16.204;2023-09-19T08:52:16;19.50;99.90
25640;DHT22;13497;48.322;16.204;2023-09-19T08:54:48;19.50;99.90
25640;DHT22;13497;48.322;16.204;2023-09-19T08:57:17;19.50;99.90
25640;DHT22;13497;48.322;16.204;2023-09-19T08:59:48;19.40;99.90
25640;DHT22;13497;48.322;16.204;2023-09-19T09:02:16;19.30;99.90
25640;DHT22;13497;48.322;16.204;2023-09-19T09:04:46;19.30;99.90
25640;DHT22;13497;48.322;16.204;2023-09-19T09:07:13;19.30;99.90
25640;DHT22;13497;48.322;16.204;2023-09-19T09:09:39;19.30;99.90
25640;DHT22;13497;48.322;16.204;2023-09-19T09:12:12;19.40;99.90
25640;DHT22;13497;48.322;16.204;2023-09-19T09:14:39;19.60;99.90
25640;DHT22;13497;48.322;16.204;2023-09-19T09:17:05;19.70;99.90
25640;DHT22;13497;48.322;16.204;2023-09-19T09:19:31;19.90;99.90
25640;DHT22;13497;48.322;16.204;2023-09-19T09:22:17;20.00;99.90
25640;DHT22;13497;48.322;16.204;2023-09-19T09:24:57;20.20;99.90
25640;DHT22;13497;48.322;16.204;2023-09-19T09:27:32;20.30;99.90
25640;DHT22;13497;48.322;16.204;2023-09-19T09:29:59;20.40;99.90
25640;DHT22;13497;48.322;16.204;2023-09-19T09:32:29;20.60;99.90
25640;DHT22;13497;48.322;16.204;2023-09-19T09:35:00;21.10;99.90
25640;DHT22;13497;48.322;16.204;2023-09-19T09:37:27;21.50;99.90
25640;DHT22;13497;48.322;16.204;2023-09-19T09:40:01;21.60;99.90
25640;DHT22;13497;48.322;16.204;2023-09-19T09:42:56;21.60;99.90
25640;DHT22;13497;48.322;16.204;2023-09-19T09:45:24;21.80;99.90
25640;DHT22;13497;48.322;16.204;2023-09-19T09:48:24;21.80;99.90
25640;DHT22;13497;48.322;16.204;2023-09-19T09:50:57;21.90;99.90
25640;DHT22;13497;48.322;16.204;2023-09-19T09:53:29;22.00;99.90
25640;DHT22;13497;48.322;16.204;2023-09-19T09:55:59;22.00;99.90
25640;DHT22;13497;48.322;16.204;2023-09-19T09:58:30;22.00;99.90
25640;DHT22;13497;48.322;16.204;2023-09-19T10:01:00;21.90;99.90
25640;DHT22;13497;48.322;16.204;2023-09-19T10:03:38;22.00;99.90
25640;DHT22;13497;48.322;16.204;2023-09-19T10:06:12;22.30;99.90
25640;DHT22;13497;48.322;16.204;2023-09-19T10:11:47;22.60;99.90
25640;DHT22;13497;48.322;16.204;2023-09-19T10:14:17;22.80;99.90
25640;DHT22;13497;48.322;16.204;2023-09-19T10:16:49;22.90;99.90
25640;DHT22;13497;48.322;16.204;2023-09-19T10:19:25;22.80;99.90
25640;DHT22;13497;48.322;16.204;2023-09-19T10:21:55;22.90;99.90
25640;DHT22;13497;48.322;16.204;2023-09-19T10:24:22;23.20;99.90
25640;DHT22;13497;48.322;16.204;2023-09-19T10:26:50;23.40;99.90
25640;DHT22;13497;48.322;16.204;2023-09-19T10:29:16;23.60;99.90
25640;DHT22;13497;48.322;16.204;2023-09-19T10:31:44;23.60;99.90
25640;DHT22;13497;48.322;16.204;2023-09-19T10:34:15;23.50;99.90
25640;DHT22;13497;48.322;16.204;2023-09-19T10:36:44;23.30;99.90
25640;DHT22;13497;48.322;16.204;2023-09-19T10:39:11;23.30;99.90
25640;DHT22;13497;48.322;16.204;2023-09-19T10:41:39;23.30;99.90
25640;DHT22;13497;48.322;16.204;2023-09-19T10:44:05;23.10;99.90
25640;DHT22;13497;48.322;16.204;2023-09-19T10:46:34;22.90;99.90
25640;DHT22;13497;48.322;16.204;2023-09-19T10:49:01;23.00;99.90
25640;DHT22;13497;48.322;16.204;2023-09-19T10:51:40;23.20;99.90
25640;DHT22;13497;48.322;16.204;2023-09-19T10:54:11;23.30;99.90
25640;DHT22;13497;48.322;16.204;2023-09-19T10:56:42;23.40;99.90
25640;DHT22;13497;48.322;16.204;2023-09-19T10:59:18;23.50;99.90
25640;DHT22;13497;48.322;16.204;2023-09-19T11:01:53;23.40;99.90
25640;DHT22;13497;48.322;16.204;2023-09-19T11:04:35;23.20;99.90
25640;DHT22;13497;48.322;16.204;2023-09-19T11:07:14;22.90;99.90
25640;DHT22;13497;48.322;16.204;2023-09-19T11:09:56;22.70;99.90
25640;DHT22;13497;48.322;16.204;2023-09-19T11:15:07;22.60;99.90
25640;DHT22;13497;48.322;16.204;2023-09-19T11:17:38;22.70;99.90
25640;DHT22;13497;48.322;16.204;2023-09-19T11:30:34;23.90;99.90
25640;DHT22;13497;48.322;16.204;2023-09-19T11:36:10;24.30;99.90
25640;DHT22;13497;48.322;16.204;2023-09-19T11:41:37;24.30;99.90
25640;DHT22;13497;48.322;16.204;2023-09-19T11:49:29;24.40;99.90
25640;DHT22;13497;48.322;16.204;2023-09-19T11:52:02;24.30;99.90
25640;DHT22;13497;48.322;16.204;2023-09-19T11:54:32;24.30;99.90
25640;DHT22;13497;48.322;16.204;2023-09-19T11:56:59;24.40;99.90
25640;DHT22;13497;48.322;16.204;2023-09-19T11:59:29;24.60;99.90
25640;DHT22;13497;48.322;16.204;2023-09-19T12:02:06;24.70;99.90
25640;DHT22;13497;48.322;16.204;2023-09-19T12:04:35;24.70;99.90
25640;DHT22;13497;48.322;16.204;2023-09-19T12:07:08;24.50;99.90
25640;DHT22;13497;48.322;16.204;2023-09-19T12:09:41;24.60;99.90
25640;DHT22;13497;48.322;16.204;2023-09-19T12:12:23;24.70;99.90
25640;DHT22;13497;48.322;16.204;2023-09-19T12:14:53;24.80;99.90
25640;DHT22;13497;48.322;16.204;2023-09-19T12:17:20;25.00;99.90
25640;DHT22;13497;48.322;16.204;2023-09-19T12:19:55;25.00;99.90
25640;DHT22;13497;48.322;16.204;2023-09-19T12:22:20;24.90;99.90
25640;DHT22;13497;48.322;16.204;2023-09-19T12:24:46;24.80;99.90
25640;DHT22;13497;48.322;16.204;2023-09-19T12:27:13;24.60;99.90
25640;DHT22;13497;48.322;16.204;2023-09-19T12:29:47;24.70;99.90
25640;DHT22;13497;48.322;16.204;2023-09-19T12:32:35;24.60;99.90
25640;DHT22;13497;48.322;16.204;2023-09-19T12:35:01;24.60;99.90
25640;DHT22;13497;48.322;16.204;2023-09-19T12:37:33;24.40;99.90
25640;DHT22;13497;48.322;16.204;2023-09-19T12:40:09;24.50;99.90
25640;DHT22;13497;48.322;16.204;2023-09-19T12:42:47;24.50;99.90
25640;DHT22;13497;48.322;16.204;2023-09-19T12:45:14;24.20;99.90
25640;DHT22;13497;48.322;16.204;2023-09-19T12:53:37;23.40;99.90
25640;DHT22;13497;48.322;16.204;2023-09-19T12:56:07;23.20;99.90
25640;DHT22;13497;48.322;16.204;2023-09-19T12:58:34;23.10;99.90
25640;DHT22;13497;48.322;16.204;2023-09-19T13:01:01;23.00;99.90
25640;DHT22;13497;48.322;16.204;2023-09-19T13:03:30;22.60;99.90
25640;DHT22;13497;48.322;16.204;2023-09-19T13:06:02;22.40;99.90
25640;DHT22;13497;48.322;16.204;2023-09-19T13:08:33;22.20;99.90
25640;DHT22;13497;48.322;16.204;2023-09-19T13:11:20;22.00;99.90
25640;DHT22;13497;48.322;16.204;2023-09-19T13:14:12;21.90;99.90
25640;DHT22;13497;48.322;16.204;2023-09-19T13:19:41;21.80;99.90
25640;DHT22;13497;48.322;16.204;2023-09-19T13:24:56;21.50;99.90
25640;DHT22;13497;48.322;16.204;2023-09-19T13:27:23;21.40;99.90
25640;DHT22;13497;48.322;16.204;2023-09-19T13:29:49;20.90;99.90
25640;DHT22;13497;48.322;16.204;2023-09-19T13:32:15;20.30;99.90
25640;DHT22;13497;48.322;16.204;2023-09-19T13:34:40;20.00;99.90
25640;DHT22;13497;48.322;16.204;2023-09-19T13:37:06;20.00;99.90
25640;DHT22;13497;48.322;16.204;2023-09-19T13:39:32;19.90;99.90
25640;DHT22;13497;48.322;16.204;2023-09-19T13:41:59;19.90;99.90
25640;DHT22;13497;48.322;16.204;2023-09-19T13:44:24;20.10;99.90
25640;DHT22;13497;48.322;16.204;2023-09-19T13:46:50;20.30;99.90
25640;DHT22;13497;48.322;16.204;2023-09-19T13:49:16;20.50;99.90
25640;DHT22;13497;48.322;16.204;2023-09-19T13:51:43;20.70;99.90
25640;DHT22;13497;48.322;16.204;2023-09-19T13:54:09;20.80;99.90
25640;DHT22;13497;48.322;16.204;2023-09-19T13:56:37;21.00;99.90
25640;DHT22;13497;48.322;16.204;2023-09-19T13:59:02;21.20;99.90
25640;DHT22;13497;48.322;16.204;2023-09-19T14:01:28;21.20;99.90
25640;DHT22;13497;48.322;16.204;2023-09-19T14:03:54;21.30;99.90
25640;DHT22;13497;48.322;16.204;2023-09-19T14:06:22;21.40;99.90
25640;DHT22;13497;48.322;16.204;2023-09-19T14:08:47;21.60;99.90
25640;DHT22;13497;48.322;16.204;2023-09-19T14:11:15;22.00;99.90
25640;DHT22;13497;48.322;16.204;2023-09-19T14:13:41;22.30;99.90
25640;DHT22;13497;48.322;16.204;2023-09-19T14:16:12;22.60;99.90
25640;DHT22;13497;48.322;16.204;2023-09-19T14:18:37;22.50;99.90
25640;DHT22;13497;48.322;16.204;2023-09-19T14:21:07;22.40;99.90
25640;DHT22;13497;48.322;16.204;2023-09-19T14:23:37;22.20;99.90
25640;DHT22;13497;48.322;16.204;2023-09-19T14:26:03;22.30;99.90
25640;DHT22;13497;48.322;16.204;2023-09-19T14:28:31;22.50;99.90
25640;DHT22;13497;48.322;16.204;2023-09-19T14:30:56;22.70;99.90
25640;DHT22;13497;48.322;16.204;2023-09-19T14:33:22;23.00;99.90
25640;DHT22;13497;48.322;16.204;2023-09-19T14:35:48;23.20;99.90
25640;DHT22;13497;48.322;16.204;2023-09-19T14:38:14;23.20;99.90
25640;DHT22;13497;48.322;16.204;2023-09-19T14:40:39;23.00;99.90
25640;DHT22;13497;48.322;16.204;2023-09-19T14:43:05;23.00;99.90
25640;DHT22;13497;48.322;16.204;2023-09-19T14:45:35;23.00;99.90
25640;DHT22;13497;48.322;16.204;2023-09-19T14:48:01;23.00;99.90
25640;DHT22;13497;48.322;16.204;2023-09-19T14:50:30;23.10;99.90
25640;DHT22;13497;48.322;16.204;2023-09-19T14:52:56;23.20;99.90
25640;DHT22;13497;48.322;16.204;2023-09-19T14:55:23;23.20;99.90
25640;DHT22;13497;48.322;16.204;2023-09-19T14:57:49;23.10;99.90
25640;DHT22;13497;48.322;16.204;2023-09-19T15:00:17;22.90;99.90
25640;DHT22;13497;48.322;16.204;2023-09-19T15:02:45;22.60;99.90
25640;DHT22;13497;48.322;16.204;2023-09-19T15:05:13;22.50;99.90
25640;DHT22;13497;48.322;16.204;2023-09-19T15:07:41;22.40;99.90
25640;DHT22;13497;48.322;16.204;2023-09-19T15:10:07;22.30;99.90
25640;DHT22;13497;48.322;16.204;2023-09-19T15:12:36;22.50;99.90
25640;DHT22;13497;48.322;16.204;2023-09-19T15:15:04;22.60;99.90
25640;DHT22;13497;48.322;16.204;2023-09-19T15:17:33;22.80;99.90
25640;DHT22;13497;48.322;16.204;2023-09-19T15:19:59;23.10;99.90
25640;DHT22;13497;48.322;16.204;2023-09-19T15:22:25;23.20;99.90
25640;DHT22;13497;48.322;16.204;2023-09-19T15:24:52;23.30;99.90
25640;DHT22;13497;48.322;16.204;2023-09-19T15:27:17;23.20;99.90
25640;DHT22;13497;48.322;16.204;2023-09-19T15:29:46;23.10;99.90
25640;DHT22;13497;48.322;16.204;2023-09-19T15:32:11;22.90;99.90
25640;DHT22;13497;48.322;16.204;2023-09-19T15:34:37;22.90;99.90
25640;DHT22;13497;48.322;16.204;2023-09-19T15:37:03;22.80;99.90
25640;DHT22;13497;48.322;16.204;2023-09-19T15:39:31;22.80;99.90
25640;DHT22;13497;48.322;16.204;2023-09-19T15:41:59;22.80;99.90
25640;DHT22;13497;48.322;16.204;2023-09-19T15:44:25;22.70;99.90
25640;DHT22;13497;48.322;16.204;2023-09-19T15:46:53;22.70;99.90
25640;DHT22;13497;48.322;16.204;2023-09-19T15:49:19;22.70;99.90
25640;DHT22;13497;48.322;16.204;2023-09-19T15:51:46;22.70;99.90
25640;DHT22;13497;48.322;16.204;2023-09-19T15:54:13;22.60;99.90
25640;DHT22;13497;48.322;16.204;2023-09-19T15:56:40;22.70;99.90
25640;DHT22;13497;48.322;16.204;2023-09-19T15:59:07;22.60;99.90
25640;DHT22;13497;48.322;16.204;2023-09-19T16:01:32;22.60;99.90
25640;DHT22;13497;48.322;16.204;2023-09-19T16:03:58;22.50;99.90
25640;DHT22;13497;48.322;16.204;2023-09-19T16:06:26;22.50;99.90
25640;DHT22;13497;48.322;16.204;2023-09-19T16:08:56;22.50;99.90
25640;DHT22;13497;48.322;16.204;2023-09-19T16:11:25;22.50;99.90